Time;durP1;ratioP1;P1;durP2;ratioP2;P2;SDS_P1;SDS_P2;PMS_P1;PMS_P2;Temp;Humidity;BMP_temperature;BMP_pressure;BME280_temperature;BME280_humidity;BME280_pressure;Samples;Min_cycle;Max_cycle;Signal;HPM_P1;HPM_P2
2022/06/23 00:02:27;;;;;;;5.60;4.03;;;19.70;99.90;;;;;;5047575;28;20447;-56
2022/06/23 00:05:01;;;;;;;7.33;4.30;;;19.70;99.90;;;;;;5043574;28;20488;-57
2022/06/23 00:07:31;;;;;;;5.53;4.00;;;19.70;99.90;;;;;;5042716;28;20472;-50
2022/06/23 00:10:00;;;;;;;4.23;3.83;;;19.70;99.90;;;;;;5048585;28;20495;-61
2022/06/23 00:12:31;;;;;;;5.30;4.13;;;19.70;99.90;;;;;;5046455;28;20575;-59
2022/06/23 00:15:33;;;;;;;4.20;3.80;;;19.70;99.90;;;;;;5052776;28;20798;-56
2022/06/23 00:18:04;;;;;;;6.60;4.03;;;19.70;99.90;;;;;;5039912;28;20483;-49
2022/06/23 00:20:50;;;;;;;7.83;3.80;;;19.70;99.90;;;;;;5049986;28;20471;-49
2022/06/23 00:23:21;;;;;;;5.90;4.10;;;19.60;99.90;;;;;;5056665;28;20421;-52
2022/06/23 00:25:52;;;;;;;7.23;4.30;;;19.60;99.90;;;;;;5056530;28;20413;-45
2022/06/23 00:28:26;;;;;;;5.47;4.30;;;19.60;99.90;;;;;;5050275;28;20486;-49
2022/06/23 00:31:01;;;;;;;8.30;4.00;;;19.60;99.90;;;;;;5042834;28;20484;-57
2022/06/23 00:33:37;;;;;;;5.07;3.40;;;19.60;99.90;;;;;;5049512;28;20503;-57
2022/06/23 00:36:17;;;;;;;4.37;3.43;;;19.60;99.90;;;;;;5046989;28;20436;-55
2022/06/23 00:38:45;;;;;;;6.00;4.10;;;19.60;99.90;;;;;;5048339;28;20941;-59
2022/06/23 00:41:17;;;;;;;5.30;4.30;;;19.50;99.90;;;;;;5053663;28;20495;-55
2022/06/23 00:43:47;;;;;;;8.37;4.30;;;19.60;99.90;;;;;;5056118;28;20460;-51
2022/06/23 00:46:22;;;;;;;7.17;4.43;;;19.50;99.90;;;;;;5056431;28;20508;-55
2022/06/23 00:48:56;;;;;;;7.23;6.20;;;19.50;99.90;;;;;;5056942;28;20464;-45
2022/06/23 00:51:30;;;;;;;9.97;4.97;;;19.50;99.90;;;;;;5053580;28;20480;-51
2022/06/23 00:54:02;;;;;;;5.90;5.03;;;19.50;99.90;;;;;;5043901;28;20460;-45
2022/06/23 00:56:44;;;;;;;9.97;4.70;;;19.50;99.90;;;;;;5048606;28;20961;-60
2022/06/23 00:59:18;;;;;;;6.63;4.47;;;19.40;99.90;;;;;;5055676;28;20440;-44
2022/06/23 01:01:50;;;;;;;7.23;4.53;;;19.40;99.90;;;;;;5056328;28;20431;-55
2022/06/23 01:04:27;;;;;;;7.63;4.97;;;19.40;99.90;;;;;;5056093;28;20438;-48
2022/06/23 01:07:00;;;;;;;5.33;3.40;;;19.30;99.90;;;;;;5055595;28;20543;-53
2022/06/23 01:09:34;;;;;;;4.97;4.27;;;19.30;99.90;;;;;;5055407;28;20444;-52
2022/06/23 01:12:05;;;;;;;6.20;4.93;;;19.30;99.90;;;;;;5055347;28;20464;-52
2022/06/23 01:14:40;;;;;;;7.10;4.93;;;19.20;99.90;;;;;;5055324;28;20531;-51
2022/06/23 01:17:24;;;;;;;7.00;4.40;;;19.30;99.90;;;;;;5051589;28;20468;-48
2022/06/23 01:20:26;;;;;;;5.17;4.00;;;19.20;99.90;;;;;;5058110;28;20443;-59
2022/06/23 01:23:16;;;;;;;9.13;5.07;;;19.20;99.90;;;;;;5055920;28;20466;-59
2022/06/23 01:26:15;;;;;;;5.00;4.23;;;19.10;99.90;;;;;;5054988;28;20464;-50
2022/06/23 01:28:44;;;;;;;5.60;3.80;;;19.10;99.90;;;;;;5039859;28;20531;-50
2022/06/23 01:31:16;;;;;;;7.10;4.40;;;19.10;99.90;;;;;;5069136;28;20457;-40
2022/06/23 01:33:52;;;;;;;4.50;3.63;;;19.10;99.90;;;;;;5043250;28;20497;-58
2022/06/23 01:36:27;;;;;;;5.27;4.30;;;19.10;99.90;;;;;;5046720;28;20452;-41
2022/06/23 01:39:01;;;;;;;8.00;4.73;;;19.10;99.90;;;;;;5055032;28;20475;-57
2022/06/23 01:41:33;;;;;;;5.93;3.93;;;19.10;99.90;;;;;;5054549;28;20427;-44
2022/06/23 01:44:10;;;;;;;4.53;3.97;;;19.00;99.90;;;;;;5055053;28;20436;-59
2022/06/23 01:46:39;;;;;;;5.03;4.10;;;19.00;99.90;;;;;;5056669;28;20479;-53
2022/06/23 01:49:16;;;;;;;7.53;4.60;;;18.90;99.90;;;;;;5040973;28;20476;-54
2022/06/23 01:51:54;;;;;;;5.57;4.17;;;18.90;99.90;;;;;;5036775;28;20486;-55
2022/06/23 01:54:26;;;;;;;7.73;4.47;;;18.90;99.90;;;;;;5049438;28;20496;-42
2022/06/23 01:57:03;;;;;;;6.80;4.30;;;18.90;99.90;;;;;;5050594;28;20468;-49
2022/06/23 01:59:59;;;;;;;7.97;5.00;;;18.90;99.90;;;;;;5051659;28;20421;-51
2022/06/23 02:02:39;;;;;;;6.20;4.33;;;18.90;99.90;;;;;;5039883;28;20532;-47
2022/06/23 02:05:21;;;;;;;6.27;4.03;;;18.80;99.90;;;;;;5054838;28;20491;-42
2022/06/23 02:07:55;;;;;;;6.00;3.60;;;18.80;99.90;;;;;;5054745;28;20484;-56
2022/06/23 02:10:30;;;;;;;6.17;3.70;;;18.80;99.90;;;;;;5054177;28;21067;-47
2022/06/23 02:13:07;;;;;;;5.73;4.50;;;18.70;99.90;;;;;;5054749;28;20479;-48
2022/06/23 02:15:39;;;;;;;6.13;3.27;;;18.70;99.90;;;;;;5038588;28;20440;-47
2022/06/23 02:18:17;;;;;;;7.67;4.13;;;18.70;99.90;;;;;;5054469;28;20509;-51
2022/06/23 02:20:52;;;;;;;7.83;5.00;;;18.70;99.90;;;;;;5054439;28;20464;-52
2022/06/23 02:23:29;;;;;;;6.17;3.90;;;18.70;99.90;;;;;;5054393;28;20496;-43
2022/06/23 02:25:59;;;;;;;8.23;4.33;;;18.60;99.90;;;;;;5053458;28;20474;-53
2022/06/23 02:28:34;;;;;;;6.87;3.60;;;18.50;99.90;;;;;;5056118;28;20417;-60
2022/06/23 02:31:12;;;;;;;8.50;4.70;;;18.50;99.90;;;;;;5059686;28;20475;-50
2022/06/23 02:33:45;;;;;;;5.97;3.97;;;18.50;99.90;;;;;;5059819;28;20506;-54
2022/06/23 02:36:24;;;;;;;10.33;4.63;;;18.40;99.90;;;;;;5059160;28;20451;-59
2022/06/23 02:38:53;;;;;;;7.40;4.47;;;18.40;99.90;;;;;;5059376;28;20455;-56
2022/06/23 02:41:34;;;;;;;5.40;3.93;;;18.40;99.90;;;;;;5074521;28;20468;-56
2022/06/23 02:44:20;;;;;;;6.10;3.90;;;18.40;99.90;;;;;;5060972;28;20420;-58
2022/06/23 02:47:04;;;;;;;7.07;4.17;;;18.30;99.90;;;;;;5065187;28;20459;-50
2022/06/23 02:49:59;;;;;;;5.10;4.43;;;18.30;99.90;;;;;;5028340;28;20492;-56
2022/06/23 02:52:53;;;;;;;4.43;4.00;;;18.30;99.90;;;;;;5047579;28;20485;-46
2022/06/23 02:55:43;;;;;;;6.57;3.90;;;18.40;99.90;;;;;;5044916;28;20512;-46
2022/06/23 02:58:18;;;;;;;6.63;4.67;;;18.40;99.90;;;;;;5058032;28;20793;-48
2022/06/23 03:00:52;;;;;;;5.30;4.80;;;18.40;99.90;;;;;;5057910;28;20439;-55
2022/06/23 03:03:28;;;;;;;5.43;4.13;;;18.40;99.90;;;;;;5058335;28;20447;-45
2022/06/23 03:06:01;;;;;;;4.23;3.50;;;18.40;99.90;;;;;;5053166;28;20479;-56
2022/06/23 03:08:36;;;;;;;4.93;3.77;;;18.40;99.90;;;;;;5047579;28;20426;-56
2022/06/23 03:11:08;;;;;;;6.03;3.97;;;18.40;99.90;;;;;;5057945;28;20471;-49
2022/06/23 03:13:43;;;;;;;8.30;4.40;;;18.40;99.90;;;;;;5039395;28;20521;-57
2022/06/23 03:16:16;;;;;;;4.60;3.60;;;18.40;99.90;;;;;;5038145;28;20460;-48
2022/06/23 03:18:55;;;;;;;5.20;4.10;;;18.40;99.90;;;;;;5038501;28;20477;-54
2022/06/23 03:21:27;;;;;;;6.27;4.40;;;18.40;99.90;;;;;;5038819;28;20496;-46
2022/06/23 03:24:02;;;;;;;6.20;3.57;;;18.40;99.90;;;;;;5054984;28;20567;-52
2022/06/23 03:26:38;;;;;;;9.83;3.93;;;18.40;99.90;;;;;;5057870;28;20443;-46
2022/06/23 03:29:15;;;;;;;7.60;3.53;;;18.40;99.90;;;;;;5056767;28;20527;-50
2022/06/23 03:31:48;;;;;;;7.33;4.97;;;18.40;99.90;;;;;;5057324;28;20440;-53
2022/06/23 03:34:23;;;;;;;6.10;4.83;;;18.40;99.90;;;;;;5057503;28;20483;-56
2022/06/23 03:36:55;;;;;;;8.50;4.00;;;18.40;99.90;;;;;;5057313;28;20499;-59
2022/06/23 03:42:23;;;;;;;4.37;3.87;;;18.50;99.90;;;;;;5057971;28;20431;-55
2022/06/23 03:44:56;;;;;;;6.70;3.80;;;18.50;99.90;;;;;;5066237;28;20485;-47
2022/06/23 03:47:29;;;;;;;4.97;4.03;;;18.40;99.90;;;;;;5056997;28;20769;-47
2022/06/23 03:50:01;;;;;;;6.87;4.67;;;18.40;99.90;;;;;;5052073;28;20452;-51
2022/06/23 03:52:36;;;;;;;4.50;3.33;;;18.40;99.90;;;;;;5057355;28;20425;-47
2022/06/23 03:55:14;;;;;;;3.93;3.60;;;18.40;99.90;;;;;;5050812;28;20490;-42
2022/06/23 03:57:53;;;;;;;3.50;2.97;;;18.40;99.90;;;;;;5037613;28;20464;-55
2022/06/23 04:00:27;;;;;;;7.57;4.80;;;18.40;99.90;;;;;;5042038;28;20424;-48
2022/06/23 04:03:04;;;;;;;4.53;4.00;;;18.40;99.90;;;;;;5050785;28;20519;-56
2022/06/23 04:06:02;;;;;;;4.13;3.70;;;18.50;99.90;;;;;;5034670;28;20472;-53
2022/06/23 04:08:31;;;;;;;5.03;4.30;;;18.50;99.90;;;;;;5049391;28;20524;-45
2022/06/23 04:11:43;;;;;;;4.60;3.87;;;18.50;99.90;;;;;;5051410;28;20467;-40
2022/06/23 04:13:51;;;;;;;5.10;3.40;;;18.50;99.90;;;;;;5039692;28;20488;-60
2022/06/23 04:16:23;;;;;;;3.90;3.50;;;18.60;99.90;;;;;;5057723;28;20442;-51
2022/06/23 04:18:50;;;;;;;3.93;3.60;;;18.60;99.90;;;;;;5055385;28;20476;-55
2022/06/23 04:21:24;;;;;;;7.17;3.40;;;18.60;99.90;;;;;;5050909;28;20440;-49
2022/06/23 04:23:55;;;;;;;5.70;3.60;;;18.70;99.90;;;;;;5048525;28;20426;-49
2022/06/23 04:26:28;;;;;;;3.37;3.00;;;18.70;99.90;;;;;;5034806;28;20476;-59
2022/06/23 04:28:58;;;;;;;5.03;3.80;;;18.80;99.90;;;;;;5049260;28;20492;-60
2022/06/23 04:31:32;;;;;;;7.93;3.87;;;18.80;99.90;;;;;;5042885;28;20477;-58
2022/06/23 04:34:01;;;;;;;4.70;3.30;;;18.80;99.90;;;;;;5048652;28;20468;-44
2022/06/23 04:36:32;;;;;;;7.50;3.80;;;18.90;99.90;;;;;;5056635;28;20524;-52
2022/06/23 04:39:14;;;;;;;7.27;2.87;;;18.90;99.90;;;;;;5056416;28;20471;-51
2022/06/23 04:41:44;;;;;;;4.73;3.20;;;18.90;99.90;;;;;;5041714;28;20472;-53
2022/06/23 04:44:16;;;;;;;4.83;2.63;;;19.00;99.90;;;;;;5046680;28;20464;-50
2022/06/23 04:46:47;;;;;;;3.53;3.23;;;19.10;99.90;;;;;;5057127;28;20475;-56
2022/06/23 04:49:20;;;;;;;3.57;3.10;;;19.00;99.90;;;;;;5058822;28;20467;-53
2022/06/23 04:51:57;;;;;;;6.50;3.50;;;19.10;99.90;;;;;;5070684;28;20472;-60
2022/06/23 04:54:27;;;;;;;4.07;3.10;;;19.10;99.90;;;;;;5050553;28;20470;-52
2022/06/23 04:56:58;;;;;;;4.23;3.50;;;19.10;99.90;;;;;;5056815;28;20448;-49
2022/06/23 04:59:37;;;;;;;8.33;3.63;;;19.20;99.90;;;;;;5054529;28;20571;-60
2022/06/23 05:02:19;;;;;;;4.67;3.90;;;19.30;99.90;;;;;;5047396;28;20467;-49
2022/06/23 05:04:53;;;;;;;3.70;3.40;;;19.30;99.90;;;;;;5049822;28;20472;-55
2022/06/23 05:07:26;;;;;;;5.17;3.60;;;19.40;99.90;;;;;;5045724;28;20515;-52
2022/06/23 05:09:59;;;;;;;4.57;3.63;;;19.40;99.90;;;;;;5054859;28;20436;-55
2022/06/23 05:12:29;;;;;;;10.33;4.10;;;19.50;99.90;;;;;;5054082;28;20456;-55
2022/06/23 05:15:03;;;;;;;6.33;3.60;;;19.50;99.90;;;;;;5051479;28;20472;-58
2022/06/23 05:17:34;;;;;;;4.80;3.47;;;19.50;99.90;;;;;;5046951;28;20484;-56
2022/06/23 05:20:06;;;;;;;5.53;3.20;;;19.60;99.90;;;;;;5056211;28;20450;-59
2022/06/23 05:22:40;;;;;;;4.47;2.73;;;19.60;99.90;;;;;;5054032;28;20424;-46
2022/06/23 05:25:28;;;;;;;8.70;3.53;;;19.70;99.90;;;;;;5053048;28;20432;-53
2022/06/23 05:27:59;;;;;;;9.30;4.10;;;19.70;99.90;;;;;;5054809;28;20484;-47
2022/06/23 05:30:27;;;;;;;5.40;3.87;;;19.80;99.90;;;;;;5051512;28;20652;-59
2022/06/23 05:33:01;;;;;;;6.20;3.27;;;19.90;99.90;;;;;;5069508;28;20502;-60
2022/06/23 05:35:33;;;;;;;3.67;3.00;;;20.00;99.90;;;;;;5047369;28;20460;-53
2022/06/23 05:38:04;;;;;;;3.30;2.73;;;20.00;99.90;;;;;;5046977;28;20467;-58
2022/06/23 05:40:35;;;;;;;5.50;3.50;;;20.10;99.90;;;;;;5047216;28;20448;-61
2022/06/23 05:43:03;;;;;;;4.40;2.97;;;20.10;99.90;;;;;;5042190;28;20515;-58
2022/06/23 05:45:38;;;;;;;4.80;2.67;;;20.20;99.90;;;;;;5052651;28;20492;-58
2022/06/23 05:48:07;;;;;;;3.67;3.37;;;20.30;99.90;;;;;;5042899;28;20444;-49
2022/06/23 05:50:42;;;;;;;5.00;3.57;;;20.30;99.90;;;;;;5044617;28;20463;-59
2022/06/23 05:53:23;;;;;;;5.33;3.67;;;20.40;99.90;;;;;;5046951;28;20913;-54
2022/06/23 05:55:54;;;;;;;6.40;3.80;;;20.50;99.90;;;;;;5043683;28;20469;-57
2022/06/23 05:58:29;;;;;;;4.10;3.43;;;20.60;99.90;;;;;;5038380;28;20432;-58
2022/06/23 06:01:02;;;;;;;4.43;3.70;;;20.70;99.90;;;;;;5041889;28;20435;-55
2022/06/23 06:03:33;;;;;;;5.07;3.10;;;20.70;99.90;;;;;;5038778;28;20548;-55
2022/06/23 06:06:02;;;;;;;4.00;3.00;;;20.80;99.90;;;;;;5043666;28;20956;-51
2022/06/23 06:09:35;;;;;;;6.23;3.87;;;20.90;99.90;;;;;;5037252;28;20482;-59
2022/06/23 06:11:23;;;;;;;5.90;3.43;;;20.90;99.90;;;;;;5038521;28;20479;-55
2022/06/23 06:13:51;;;;;;;5.47;3.20;;;21.00;99.90;;;;;;5035712;28;20487;-52
2022/06/23 06:16:18;;;;;;;6.43;3.93;;;21.10;99.90;;;;;;5031373;28;20424;-59
2022/06/23 06:18:46;;;;;;;4.00;3.33;;;21.20;99.90;;;;;;5044023;28;20528;-60
2022/06/23 06:21:17;;;;;;;5.40;3.90;;;21.30;99.90;;;;;;5040738;28;20467;-54
2022/06/23 06:23:52;;;;;;;5.73;2.97;;;21.30;99.90;;;;;;5042116;28;20433;-56
2022/06/23 06:26:22;;;;;;;5.20;3.23;;;21.40;99.90;;;;;;5051655;28;20495;-59
2022/06/23 06:28:50;;;;;;;7.40;3.27;;;21.40;99.90;;;;;;5049916;28;20429;-57
2022/06/23 06:31:23;;;;;;;6.23;4.47;;;21.40;99.90;;;;;;5048854;28;20476;-58
2022/06/23 06:33:59;;;;;;;4.40;3.10;;;21.50;99.90;;;;;;5049643;28;20436;-56
2022/06/23 06:36:36;;;;;;;4.73;3.80;;;21.50;99.90;;;;;;5052200;28;20448;-60
2022/06/23 06:39:10;;;;;;;4.57;3.80;;;21.60;99.90;;;;;;5051687;28;20467;-57
2022/06/23 06:41:40;;;;;;;7.37;4.33;;;21.60;99.90;;;;;;5053178;28;20447;-59
2022/06/23 06:44:07;;;;;;;10.60;3.57;;;21.70;99.90;;;;;;5048485;28;20445;-48
2022/06/23 06:46:36;;;;;;;4.17;3.17;;;21.70;99.90;;;;;;5067240;28;20478;-56
2022/06/23 06:49:03;;;;;;;7.37;4.00;;;21.80;99.90;;;;;;5070718;28;20431;-55
2022/06/23 06:51:32;;;;;;;6.60;3.67;;;21.80;99.90;;;;;;5070195;28;20519;-54
2022/06/23 06:54:02;;;;;;;5.50;3.50;;;21.90;99.90;;;;;;5056325;28;20448;-54
2022/06/23 06:56:39;;;;;;;5.27;2.80;;;22.00;99.90;;;;;;5049810;28;20476;-60
2022/06/23 06:59:15;;;;;;;3.80;3.10;;;22.10;99.90;;;;;;5046171;28;20479;-55
2022/06/23 07:01:45;;;;;;;7.50;3.47;;;22.20;99.90;;;;;;5066180;28;20519;-58
2022/06/23 07:04:17;;;;;;;3.07;2.60;;;22.40;99.90;;;;;;5047556;28;20474;-55
2022/06/23 07:06:48;;;;;;;5.17;2.80;;;22.50;99.90;;;;;;5032449;28;20886;-58
2022/06/23 07:09:24;;;;;;;5.93;3.13;;;22.70;99.90;;;;;;5041843;28;20483;-59
2022/06/23 07:11:58;;;;;;;4.07;3.57;;;22.90;99.90;;;;;;5027451;28;20429;-59
2022/06/23 07:14:31;;;;;;;7.13;3.50;;;23.10;99.90;;;;;;5046454;28;20476;-47
2022/06/23 07:17:01;;;;;;;9.00;3.50;;;23.50;99.90;;;;;;5047981;28;20494;-54
2022/06/23 07:19:33;;;;;;;6.60;3.57;;;24.00;99.90;;;;;;5049407;28;20426;-60
2022/06/23 07:22:07;;;;;;;5.13;3.33;;;25.10;99.90;;;;;;5048411;28;20464;-61
2022/06/23 07:24:39;;;;;;;4.23;3.43;;;26.80;99.50;;;;;;5046807;28;20452;-61
2022/06/23 07:27:12;;;;;;;7.60;3.20;;;28.90;94.50;;;;;;5053204;28;20471;-52
2022/06/23 07:29:44;;;;;;;4.83;2.90;;;30.90;79.00;;;;;;5048153;28;20441;-57
2022/06/23 07:32:22;;;;;;;6.97;3.33;;;32.40;68.90;;;;;;5048057;28;20471;-60
2022/06/23 07:34:52;;;;;;;3.33;3.03;;;34.20;59.10;;;;;;5046325;28;20471;-58
2022/06/23 07:37:26;;;;;;;4.67;3.10;;;35.40;55.70;;;;;;5051962;28;20443;-58
2022/06/23 07:40:00;;;;;;;5.43;3.30;;;36.40;50.00;;;;;;5055075;28;20486;-59
2022/06/23 07:42:40;;;;;;;4.63;2.93;;;37.00;47.70;;;;;;5056609;28;20440;-62
2022/06/23 07:45:14;;;;;;;4.23;3.53;;;37.80;46.10;;;;;;5063370;28;20463;-57
2022/06/23 07:47:41;;;;;;;5.90;3.47;;;38.20;44.00;;;;;;5075361;28;20458;-45
2022/06/23 07:50:09;;;;;;;6.30;3.00;;;38.30;43.20;;;;;;5067867;28;20464;-54
2022/06/23 07:52:35;;;;;;;5.53;2.97;;;38.40;42.40;;;;;;5048415;28;20821;-59
2022/06/23 07:55:03;;;;;;;5.20;3.37;;;38.50;42.20;;;;;;5048445;28;20575;-50
2022/06/23 07:57:35;;;;;;;5.00;3.30;;;38.60;41.50;;;;;;5069339;28;20439;-49
2022/06/23 08:00:06;;;;;;;2.90;2.63;;;38.80;41.00;;;;;;5056921;28;20451;-57
2022/06/23 08:02:42;;;;;;;4.20;3.10;;;38.90;40.90;;;;;;5044715;28;20448;-57
2022/06/23 08:05:15;;;;;;;4.03;3.57;;;38.70;40.60;;;;;;5056573;28;20539;-62
2022/06/23 08:07:42;;;;;;;4.40;3.10;;;38.80;40.60;;;;;;5061190;28;20451;-53
2022/06/23 08:10:12;;;;;;;5.53;3.60;;;38.80;40.50;;;;;;5050798;28;20483;-59
2022/06/23 08:12:55;;;;;;;5.17;3.50;;;38.70;41.30;;;;;;5042629;28;20456;-55
2022/06/23 08:18:26;;;;;;;6.40;3.03;;;38.50;39.80;;;;;;5049245;28;22159;-59
2022/06/23 08:20:59;;;;;;;5.00;3.60;;;38.30;40.30;;;;;;5051824;28;20455;-56
2022/06/23 08:23:30;;;;;;;4.07;3.60;;;38.20;40.10;;;;;;5047688;28;20442;-54
2022/06/23 08:25:57;;;;;;;3.83;3.43;;;38.30;39.80;;;;;;5029593;28;20440;-45
2022/06/23 08:28:26;;;;;;;3.97;3.20;;;38.10;40.30;;;;;;5040520;28;20460;-54
2022/06/23 08:30:52;;;;;;;4.67;3.70;;;37.90;40.10;;;;;;5048030;28;20513;-54
2022/06/23 08:33:19;;;;;;;4.63;3.40;;;38.00;40.30;;;;;;5050216;28;20443;-55
2022/06/23 08:35:49;;;;;;;4.60;3.63;;;38.00;40.20;;;;;;5047878;28;20512;-55
2022/06/23 08:38:21;;;;;;;6.73;4.03;;;37.90;39.80;;;;;;5044872;28;20470;-57
2022/06/23 08:41:12;;;;;;;4.60;3.33;;;37.90;40.00;;;;;;5047250;28;20464;-51
2022/06/23 08:43:43;;;;;;;7.90;3.60;;;37.90;39.70;;;;;;5033908;28;20414;-60
2022/06/23 08:46:18;;;;;;;4.40;3.53;;;38.00;39.50;;;;;;5051910;28;20428;-56
2022/06/23 08:48:52;;;;;;;5.20;3.40;;;38.30;39.50;;;;;;5070207;28;20449;-57
2022/06/23 08:51:26;;;;;;;4.73;3.87;;;38.40;39.60;;;;;;5051979;28;20447;-56
2022/06/23 08:54:05;;;;;;;7.83;3.63;;;38.20;40.10;;;;;;5046168;28;20468;-47
2022/06/23 08:56:38;;;;;;;4.40;3.40;;;38.10;39.80;;;;;;5051344;28;20474;-52
2022/06/23 08:59:13;;;;;;;4.83;3.93;;;38.10;40.40;;;;;;5051918;28;20467;-46
2022/06/23 09:01:46;;;;;;;3.90;3.20;;;38.20;39.80;;;;;;5046623;28;20432;-61
2022/06/23 09:04:26;;;;;;;4.80;3.37;;;38.10;39.00;;;;;;5052600;28;20416;-58
2022/06/23 09:07:03;;;;;;;7.50;4.17;;;38.10;39.40;;;;;;5053547;28;20516;-48
2022/06/23 09:09:37;;;;;;;4.30;3.87;;;38.10;39.50;;;;;;5049034;28;20455;-57
2022/06/23 09:12:13;;;;;;;4.27;3.33;;;38.20;38.90;;;;;;5049622;28;20543;-58
2022/06/23 09:15:23;;;;;;;3.53;3.00;;;38.30;37.70;;;;;;5052707;28;20504;-61
2022/06/23 09:18:05;;;;;;;5.07;3.23;;;38.20;38.00;;;;;;5049989;28;20558;-58
2022/06/23 09:20:49;;;;;;;3.80;3.30;;;38.30;38.50;;;;;;5051223;28;20436;-61
2022/06/23 09:23:32;;;;;;;4.27;3.27;;;38.30;38.80;;;;;;5047935;28;20499;-59
2022/06/23 09:26:06;;;;;;;3.50;3.20;;;38.20;38.20;;;;;;5045215;28;20433;-60
2022/06/23 09:28:46;;;;;;;5.20;3.67;;;38.10;38.70;;;;;;5045651;28;20436;-47
2022/06/23 09:31:37;;;;;;;4.00;2.90;;;38.10;38.20;;;;;;5048536;28;20495;-53
2022/06/23 09:34:13;;;;;;;3.03;2.80;;;38.10;37.50;;;;;;5045793;28;20515;-58
2022/06/23 09:37:03;;;;;;;3.00;2.80;;;38.00;38.10;;;;;;5054766;28;20545;-55
2022/06/23 09:39:56;;;;;;;3.93;2.90;;;38.00;38.30;;;;;;5045041;28;20440;-61
2022/06/23 09:43:07;;;;;;;3.77;2.90;;;38.00;38.00;;;;;;5039713;28;21002;-59
2022/06/23 09:45:54;;;;;;;4.57;3.00;;;38.00;37.70;;;;;;4923419;29;20500;-58
2022/06/23 09:49:03;;;;;;;4.43;2.90;;;38.00;37.50;;;;;;5028488;28;20486;-59
2022/06/23 09:51:47;;;;;;;3.80;3.17;;;38.20;38.20;;;;;;4976955;28;20469;-51
2022/06/23 09:54:34;;;;;;;3.27;2.83;;;38.30;37.20;;;;;;5044382;28;20496;-52
2022/06/23 09:57:19;;;;;;;7.77;5.30;;;38.30;35.60;;;;;;5048835;28;20463;-56
2022/06/23 10:00:03;;;;;;;3.43;3.10;;;38.40;35.30;;;;;;5043224;28;20438;-59
2022/06/23 10:02:52;;;;;;;4.10;3.80;;;38.30;36.30;;;;;;5038934;28;20478;-55
2022/06/23 10:05:41;;;;;;;7.60;3.33;;;38.30;36.20;;;;;;5042004;28;20508;-55
2022/06/23 10:08:30;;;;;;;3.13;2.60;;;38.10;35.60;;;;;;5035558;28;20478;-61
2022/06/23 10:11:14;;;;;;;3.50;2.93;;;38.00;35.60;;;;;;5038341;28;20536;-55
2022/06/23 10:14:00;;;;;;;4.83;3.00;;;37.90;36.30;;;;;;5030211;28;20520;-45
2022/06/23 10:16:47;;;;;;;5.03;2.67;;;37.70;35.30;;;;;;5041354;28;20467;-62
2022/06/23 10:19:34;;;;;;;8.57;2.73;;;37.40;36.60;;;;;;5050380;28;20915;-58
2022/06/23 10:22:21;;;;;;;3.73;3.20;;;37.10;37.40;;;;;;5055846;28;20448;-55
2022/06/23 10:25:18;;;;;;;3.57;3.27;;;37.00;37.90;;;;;;5065778;28;20511;-52
2022/06/23 10:28:00;;;;;;;3.43;2.53;;;36.90;38.70;;;;;;5034478;28;20447;-60
2022/06/23 10:30:38;;;;;;;3.83;3.10;;;36.80;37.60;;;;;;5052913;28;20432;-56
2022/06/23 10:33:42;;;;;;;3.97;3.57;;;36.60;38.70;;;;;;5052916;28;20480;-48
2022/06/23 10:36:27;;;;;;;3.53;3.10;;;36.40;39.10;;;;;;5053945;28;20453;-60
2022/06/23 10:39:05;;;;;;;3.10;2.80;;;36.20;37.80;;;;;;5050188;28;20479;-62
2022/06/23 10:42:10;;;;;;;5.83;3.23;;;36.00;39.00;;;;;;5032139;28;20488;-53
2022/06/23 10:45:10;;;;;;;4.87;2.90;;;35.70;38.10;;;;;;5043234;28;20478;-53
2022/06/23 10:48:04;;;;;;;6.60;3.87;;;35.40;38.60;;;;;;5028137;28;20487;-58
2022/06/23 10:50:41;;;;;;;3.50;3.07;;;35.20;39.20;;;;;;5050123;28;20512;-60
2022/06/23 10:53:36;;;;;;;7.80;3.23;;;35.00;39.40;;;;;;5050123;28;20515;-58
2022/06/23 10:56:22;;;;;;;3.20;2.90;;;34.70;39.70;;;;;;5053484;28;20535;-53
2022/06/23 10:59:11;;;;;;;3.03;2.83;;;34.60;40.50;;;;;;5044933;28;20514;-56
2022/06/23 11:02:02;;;;;;;2.90;2.53;;;34.50;40.70;;;;;;5038506;28;20433;-57
2022/06/23 11:04:50;;;;;;;3.83;2.97;;;34.30;41.00;;;;;;5051510;28;20829;-62
2022/06/23 11:07:37;;;;;;;2.63;2.40;;;34.30;41.40;;;;;;5046215;28;20436;-61
2022/06/23 11:10:18;;;;;;;4.80;3.20;;;34.20;40.40;;;;;;5044601;28;20531;-60
2022/06/23 11:12:56;;;;;;;4.67;2.80;;;34.00;40.80;;;;;;5052034;28;20906;-60
2022/06/23 11:15:30;;;;;;;3.50;2.80;;;33.70;42.00;;;;;;5065892;28;20524;-61
2022/06/23 11:18:19;;;;;;;4.07;3.10;;;33.60;41.80;;;;;;5062694;28;20444;-59
2022/06/23 11:20:58;;;;;;;5.00;3.00;;;33.50;42.00;;;;;;5054437;28;20420;-59
2022/06/23 11:23:35;;;;;;;5.30;2.73;;;33.50;41.40;;;;;;5050968;28;20480;-44
2022/06/23 11:26:12;;;;;;;3.00;2.50;;;33.70;41.90;;;;;;5056743;28;20431;-55
2022/06/23 11:28:54;;;;;;;3.40;3.03;;;33.70;41.80;;;;;;5053253;28;20530;-58
2022/06/23 11:31:38;;;;;;;4.93;2.90;;;33.60;40.80;;;;;;5048560;28;20664;-55
2022/06/23 11:34:33;;;;;;;4.40;2.57;;;33.70;41.80;;;;;;5047948;28;20941;-59
2022/06/23 11:37:26;;;;;;;8.00;2.73;;;33.60;41.40;;;;;;5046497;28;20479;-54
2022/06/23 11:40:16;;;;;;;4.53;3.27;;;33.60;41.90;;;;;;5039328;28;20490;-55
2022/06/23 11:43:00;;;;;;;2.93;2.73;;;33.60;41.60;;;;;;5043576;28;20432;-61
2022/06/23 11:45:39;;;;;;;3.87;3.20;;;33.50;41.90;;;;;;5046197;28;20432;-59
2022/06/23 11:48:24;;;;;;;8.47;2.87;;;33.40;41.90;;;;;;5038828;28;20437;-58
2022/06/23 11:51:00;;;;;;;8.53;2.80;;;33.30;41.50;;;;;;5038188;28;20460;-56
2022/06/23 11:53:46;;;;;;;3.00;2.70;;;33.00;41.50;;;;;;5043468;28;20473;-61
2022/06/23 11:56:23;;;;;;;5.23;3.00;;;32.80;42.20;;;;;;5047502;28;20479;-56
2022/06/23 11:59:04;;;;;;;3.80;2.83;;;32.80;42.70;;;;;;5045475;28;20514;-60
2022/06/23 12:01:31;;;;;;;3.67;2.50;;;32.60;43.20;;;;;;5021372;28;20437;-55
2022/06/23 12:04:39;;;;;;;4.67;2.97;;;32.70;43.50;;;;;;5045150;28;20444;-58
2022/06/23 12:07:27;;;;;;;4.03;2.60;;;32.60;43.60;;;;;;5029386;28;20602;-59
2022/06/23 12:10:03;;;;;;;6.77;3.50;;;32.70;42.70;;;;;;5032944;28;20462;-59
2022/06/23 12:12:33;;;;;;;2.73;2.53;;;32.70;41.50;;;;;;5057251;28;20439;-53
2022/06/23 12:15:00;;;;;;;9.70;3.40;;;32.70;42.00;;;;;;5053024;28;20496;-52
2022/06/23 12:17:31;;;;;;;4.00;3.60;;;32.70;43.50;;;;;;5046959;28;20590;-60
2022/06/23 12:20:07;;;;;;;6.33;3.63;;;32.50;42.20;;;;;;5048613;28;20493;-59
2022/06/23 12:22:40;;;;;;;3.83;2.80;;;32.40;43.10;;;;;;5050243;28;20438;-60
2022/06/23 12:25:18;;;;;;;3.23;2.80;;;32.40;43.20;;;;;;5033811;28;20453;-54
2022/06/23 12:27:52;;;;;;;3.73;2.77;;;32.40;42.50;;;;;;5041185;28;20468;-59
2022/06/23 12:30:20;;;;;;;4.63;3.50;;;32.20;42.50;;;;;;5048663;28;20496;-59
2022/06/23 12:32:55;;;;;;;10.73;3.90;;;32.20;43.10;;;;;;5054543;28;20940;-59
2022/06/23 12:35:38;;;;;;;11.70;10.03;;;32.20;43.00;;;;;;5047706;28;20901;-57
2022/06/23 12:38:10;;;;;;;31.23;22.53;;;32.30;42.30;;;;;;5045685;28;20439;-56
2022/06/23 12:40:41;;;;;;;4.80;3.43;;;32.30;43.70;;;;;;5045507;28;20457;-58
2022/06/23 12:43:26;;;;;;;7.03;5.80;;;32.20;42.40;;;;;;5044781;28;20496;-57
2022/06/23 12:46:09;;;;;;;13.10;10.37;;;32.00;43.70;;;;;;5029794;28;20428;-59
2022/06/23 12:49:09;;;;;;;7.67;4.30;;;32.00;44.40;;;;;;5044722;28;20530;-56
2022/06/23 12:51:46;;;;;;;6.50;5.03;;;32.00;44.10;;;;;;5021136;28;20417;-60
2022/06/23 12:54:37;;;;;;;12.83;8.77;;;32.00;44.20;;;;;;5039313;28;20495;-49
2022/06/23 12:57:17;;;;;;;5.80;4.73;;;31.90;44.00;;;;;;5045925;28;20480;-57
2022/06/23 12:59:49;;;;;;;5.50;3.87;;;31.90;44.40;;;;;;5057139;28;20443;-58
2022/06/23 13:02:26;;;;;;;11.30;7.70;;;31.80;43.20;;;;;;5050591;28;20436;-53
2022/06/23 13:04:59;;;;;;;8.73;7.87;;;31.80;44.00;;;;;;5048573;28;20448;-60
2022/06/23 13:07:34;;;;;;;7.50;4.67;;;31.90;44.50;;;;;;5051185;28;20489;-56
2022/06/23 13:10:06;;;;;;;7.67;6.90;;;32.00;43.80;;;;;;5059179;28;20437;-54
2022/06/23 13:12:39;;;;;;;4.07;3.67;;;32.10;44.40;;;;;;5045208;28;20433;-56
2022/06/23 13:15:10;;;;;;;5.03;4.00;;;32.10;43.40;;;;;;5044574;28;20489;-59
2022/06/23 13:17:43;;;;;;;6.70;3.83;;;32.10;43.20;;;;;;5040487;28;20464;-60
2022/06/23 13:20:23;;;;;;;6.87;5.13;;;32.10;43.50;;;;;;5045179;28;20464;-59
2022/06/23 13:22:58;;;;;;;4.43;2.47;;;32.10;43.30;;;;;;5056758;28;20439;-59
2022/06/23 13:25:32;;;;;;;3.67;3.37;;;32.10;42.10;;;;;;5065357;28;20470;-58
2022/06/23 13:27:59;;;;;;;10.57;7.27;;;32.10;41.70;;;;;;5040691;28;20520;-57
2022/06/23 13:30:31;;;;;;;5.57;5.07;;;32.30;41.70;;;;;;5048125;28;20440;-58
2022/06/23 13:33:04;;;;;;;5.33;4.53;;;32.30;42.60;;;;;;5033775;28;20489;-55
2022/06/23 13:35:37;;;;;;;7.73;6.00;;;32.30;41.30;;;;;;5047175;28;20471;-53
2022/06/23 13:38:17;;;;;;;3.40;3.10;;;32.30;41.50;;;;;;5048997;28;20508;-59
2022/06/23 13:40:50;;;;;;;3.67;3.37;;;32.30;41.00;;;;;;5050858;28;20432;-60
2022/06/23 13:43:27;;;;;;;9.07;7.70;;;32.40;41.50;;;;;;5059483;28;20490;-60